Walker, Louisiana
Current Conditions -  °F | °C
As of 3:53 PM on Tuesday 21 Oct 2014 (Local Time) from KBTR Reporting Station
Clear Clear  
Wind Chill: 81°   Ceiling: Unl
Heat Index: 81°   Visibility: 10mi
Dew Point: 54°   Wind: 5mph
Humidity: 39%   Direction: NA
Pressure: 29.99"   Gusts: NA
Location:  30.49°N, 90.86°W
Report Text: KBTR 212053Z VRB04KT 10SM CLR 27/12 A2999 RMK AO2 SLP154 T02720122 56020
Loading
Personal Weather Stations






























Interactive Weather Map
Tropical Storm Tracking
New forecast layout! Learn more

10-Day Weather Forecast

Advertisements
Track Severe Weather on mobile